sensor_id;sensor_type;location;lat;lon;timestamp;P1;durP1;ratioP1;P2;durP2;ratioP2
44766;SDS011;30487;48.716;9.272;2022-10-22T00:00:08;2.47;;;0.60;;
44766;SDS011;30487;48.716;9.272;2022-10-22T00:02:37;3.28;;;0.85;;
44766;SDS011;30487;48.716;9.272;2022-10-22T00:05:03;3.15;;;0.57;;
44766;SDS011;30487;48.716;9.272;2022-10-22T00:07:29;3.72;;;0.50;;
44766;SDS011;30487;48.716;9.272;2022-10-22T00:09:55;4.53;;;0.40;;
44766;SDS011;30487;48.716;9.272;2022-10-22T00:12:20;6.45;;;0.63;;
44766;SDS011;30487;48.716;9.272;2022-10-22T00:14:46;1.88;;;0.50;;
44766;SDS011;30487;48.716;9.272;2022-10-22T00:17:12;3.80;;;0.50;;
44766;SDS011;30487;48.716;9.272;2022-10-22T00:19:38;1.27;;;0.50;;
44766;SDS011;30487;48.716;9.272;2022-10-22T00:22:04;1.40;;;0.40;;
44766;SDS011;30487;48.716;9.272;2022-10-22T00:24:31;2.55;;;0.60;;
44766;SDS011;30487;48.716;9.272;2022-10-22T00:26:57;1.00;;;0.40;;
44766;SDS011;30487;48.716;9.272;2022-10-22T00:29:23;2.17;;;0.47;;
44766;SDS011;30487;48.716;9.272;2022-10-22T00:31:49;1.08;;;0.50;;
44766;SDS011;30487;48.716;9.272;2022-10-22T00:34:16;0.88;;;0.47;;
44766;SDS011;30487;48.716;9.272;2022-10-22T00:36:42;3.63;;;0.60;;
44766;SDS011;30487;48.716;9.272;2022-10-22T00:39:08;1.00;;;0.50;;
44766;SDS011;30487;48.716;9.272;2022-10-22T00:41:33;2.90;;;0.40;;
44766;SDS011;30487;48.716;9.272;2022-10-22T00:44:00;3.55;;;0.80;;
44766;SDS011;30487;48.716;9.272;2022-10-22T00:46:27;2.15;;;0.60;;
44766;SDS011;30487;48.716;9.272;2022-10-22T00:48:53;2.75;;;0.60;;
44766;SDS011;30487;48.716;9.272;2022-10-22T00:51:22;3.30;;;0.75;;
44766;SDS011;30487;48.716;9.272;2022-10-22T00:53:52;1.15;;;0.55;;
44766;SDS011;30487;48.716;9.272;2022-10-22T00:56:21;2.35;;;0.70;;
44766;SDS011;30487;48.716;9.272;2022-10-22T00:58:49;3.80;;;0.80;;
44766;SDS011;30487;48.716;9.272;2022-10-22T01:01:19;3.10;;;0.70;;
44766;SDS011;30487;48.716;9.272;2022-10-22T01:03:48;0.95;;;0.52;;
44766;SDS011;30487;48.716;9.272;2022-10-22T01:06:21;1.92;;;0.60;;
44766;SDS011;30487;48.716;9.272;2022-10-22T01:14:59;1.75;;;0.55;;
44766;SDS011;30487;48.716;9.272;2022-10-22T01:17:40;4.57;;;0.68;;
44766;SDS011;30487;48.716;9.272;2022-10-22T01:31:21;1.48;;;0.52;;
44766;SDS011;30487;48.716;9.272;2022-10-22T01:33:49;2.00;;;0.68;;
44766;SDS011;30487;48.716;9.272;2022-10-22T01:36:17;1.50;;;0.50;;
44766;SDS011;30487;48.716;9.272;2022-10-22T01:38:43;2.53;;;0.50;;
44766;SDS011;30487;48.716;9.272;2022-10-22T01:41:10;5.15;;;0.60;;
44766;SDS011;30487;48.716;9.272;2022-10-22T01:43:36;2.22;;;0.57;;
44766;SDS011;30487;48.716;9.272;2022-10-22T01:46:02;2.30;;;0.60;;
44766;SDS011;30487;48.716;9.272;2022-10-22T02:04:29;2.75;;;0.50;;
44766;SDS011;30487;48.716;9.272;2022-10-22T02:07:06;4.03;;;0.50;;
44766;SDS011;30487;48.716;9.272;2022-10-22T02:09:35;2.60;;;0.82;;
44766;SDS011;30487;48.716;9.272;2022-10-22T02:12:03;2.70;;;0.77;;
44766;SDS011;30487;48.716;9.272;2022-10-22T02:14:32;2.15;;;0.50;;
44766;SDS011;30487;48.716;9.272;2022-10-22T02:16:59;4.32;;;0.60;;
44766;SDS011;30487;48.716;9.272;2022-10-22T02:19:26;0.80;;;0.50;;
44766;SDS011;30487;48.716;9.272;2022-10-22T02:21:59;0.85;;;0.50;;
44766;SDS011;30487;48.716;9.272;2022-10-22T02:24:25;3.22;;;0.50;;
44766;SDS011;30487;48.716;9.272;2022-10-22T02:26:51;2.15;;;0.45;;
44766;SDS011;30487;48.716;9.272;2022-10-22T02:29:26;3.50;;;0.50;;
44766;SDS011;30487;48.716;9.272;2022-10-22T02:31:59;1.33;;;0.50;;
44766;SDS011;30487;48.716;9.272;2022-10-22T02:34:27;2.10;;;0.40;;
44766;SDS011;30487;48.716;9.272;2022-10-22T02:36:56;2.25;;;0.50;;
44766;SDS011;30487;48.716;9.272;2022-10-22T02:39:24;4.68;;;0.50;;
44766;SDS011;30487;48.716;9.272;2022-10-22T02:41:50;1.88;;;0.50;;
44766;SDS011;30487;48.716;9.272;2022-10-22T02:44:19;1.77;;;0.50;;
44766;SDS011;30487;48.716;9.272;2022-10-22T02:46:45;4.00;;;0.60;;
44766;SDS011;30487;48.716;9.272;2022-10-22T02:49:12;5.25;;;0.50;;
44766;SDS011;30487;48.716;9.272;2022-10-22T02:51:37;0.75;;;0.40;;
44766;SDS011;30487;48.716;9.272;2022-10-22T02:54:03;4.22;;;0.40;;
44766;SDS011;30487;48.716;9.272;2022-10-22T02:56:29;2.60;;;0.40;;
44766;SDS011;30487;48.716;9.272;2022-10-22T02:58:54;0.55;;;0.30;;
44766;SDS011;30487;48.716;9.272;2022-10-22T03:01:20;2.38;;;0.43;;
44766;SDS011;30487;48.716;9.272;2022-10-22T03:03:45;1.67;;;0.40;;
44766;SDS011;30487;48.716;9.272;2022-10-22T03:06:11;2.17;;;0.35;;
44766;SDS011;30487;48.716;9.272;2022-10-22T03:08:37;1.00;;;0.40;;
44766;SDS011;30487;48.716;9.272;2022-10-22T03:11:02;1.95;;;0.45;;
44766;SDS011;30487;48.716;9.272;2022-10-22T03:13:28;2.08;;;0.40;;
44766;SDS011;30487;48.716;9.272;2022-10-22T03:15:53;0.80;;;0.40;;
44766;SDS011;30487;48.716;9.272;2022-10-22T03:18:19;4.28;;;0.40;;
44766;SDS011;30487;48.716;9.272;2022-10-22T03:20:44;2.60;;;0.73;;
44766;SDS011;30487;48.716;9.272;2022-10-22T03:23:11;6.55;;;0.60;;
44766;SDS011;30487;48.716;9.272;2022-10-22T03:25:38;2.17;;;0.50;;
44766;SDS011;30487;48.716;9.272;2022-10-22T03:28:06;3.25;;;0.50;;
44766;SDS011;30487;48.716;9.272;2022-10-22T03:30:33;1.88;;;0.50;;
44766;SDS011;30487;48.716;9.272;2022-10-22T03:32:58;1.20;;;0.40;;
44766;SDS011;30487;48.716;9.272;2022-10-22T03:35:24;2.42;;;0.32;;
44766;SDS011;30487;48.716;9.272;2022-10-22T03:37:50;2.90;;;0.40;;
44766;SDS011;30487;48.716;9.272;2022-10-22T03:40:16;0.85;;;0.30;;
44766;SDS011;30487;48.716;9.272;2022-10-22T03:42:42;1.88;;;0.40;;
44766;SDS011;30487;48.716;9.272;2022-10-22T03:45:08;1.80;;;0.50;;
44766;SDS011;30487;48.716;9.272;2022-10-22T03:47:34;2.15;;;0.40;;
44766;SDS011;30487;48.716;9.272;2022-10-22T03:50:01;2.70;;;0.60;;
44766;SDS011;30487;48.716;9.272;2022-10-22T03:52:27;1.00;;;0.40;;
44766;SDS011;30487;48.716;9.272;2022-10-22T03:54:53;1.88;;;0.40;;
44766;SDS011;30487;48.716;9.272;2022-10-22T03:57:18;2.72;;;0.40;;
44766;SDS011;30487;48.716;9.272;2022-10-22T03:59:44;2.63;;;0.77;;
44766;SDS011;30487;48.716;9.272;2022-10-22T04:02:10;2.35;;;0.50;;
44766;SDS011;30487;48.716;9.272;2022-10-22T04:04:37;1.40;;;0.50;;
44766;SDS011;30487;48.716;9.272;2022-10-22T04:07:03;1.00;;;0.45;;
44766;SDS011;30487;48.716;9.272;2022-10-22T04:09:30;2.33;;;0.50;;
44766;SDS011;30487;48.716;9.272;2022-10-22T04:11:56;2.20;;;0.40;;
44766;SDS011;30487;48.716;9.272;2022-10-22T04:14:22;2.15;;;0.40;;
44766;SDS011;30487;48.716;9.272;2022-10-22T04:16:48;0.80;;;0.50;;
44766;SDS011;30487;48.716;9.272;2022-10-22T04:19:13;1.17;;;0.40;;
44766;SDS011;30487;48.716;9.272;2022-10-22T04:21:39;1.80;;;0.40;;
44766;SDS011;30487;48.716;9.272;2022-10-22T04:24:05;1.95;;;0.50;;
44766;SDS011;30487;48.716;9.272;2022-10-22T04:26:31;2.28;;;0.40;;
44766;SDS011;30487;48.716;9.272;2022-10-22T04:28:56;0.82;;;0.50;;
44766;SDS011;30487;48.716;9.272;2022-10-22T04:31:23;1.63;;;0.60;;
44766;SDS011;30487;48.716;9.272;2022-10-22T04:33:55;1.52;;;0.57;;
44766;SDS011;30487;48.716;9.272;2022-10-22T04:36:22;2.17;;;0.40;;
44766;SDS011;30487;48.716;9.272;2022-10-22T04:38:55;2.92;;;0.47;;
44766;SDS011;30487;48.716;9.272;2022-10-22T04:41:24;1.80;;;0.50;;
44766;SDS011;30487;48.716;9.272;2022-10-22T04:43:52;3.40;;;0.50;;
44766;SDS011;30487;48.716;9.272;2022-10-22T04:46:18;1.67;;;0.45;;
44766;SDS011;30487;48.716;9.272;2022-10-22T04:48:44;1.13;;;0.38;;
44766;SDS011;30487;48.716;9.272;2022-10-22T04:51:12;2.75;;;0.40;;
44766;SDS011;30487;48.716;9.272;2022-10-22T04:53:39;3.08;;;0.52;;
44766;SDS011;30487;48.716;9.272;2022-10-22T04:56:09;3.10;;;0.70;;
44766;SDS011;30487;48.716;9.272;2022-10-22T04:58:46;0.75;;;0.40;;
44766;SDS011;30487;48.716;9.272;2022-10-22T05:01:15;3.63;;;0.50;;
44766;SDS011;30487;48.716;9.272;2022-10-22T05:03:45;0.85;;;0.73;;
44766;SDS011;30487;48.716;9.272;2022-10-22T05:06:12;1.77;;;0.40;;
44766;SDS011;30487;48.716;9.272;2022-10-22T05:08:39;1.45;;;0.32;;
44766;SDS011;30487;48.716;9.272;2022-10-22T05:11:15;0.90;;;0.43;;
44766;SDS011;30487;48.716;9.272;2022-10-22T05:13:42;1.23;;;0.40;;
44766;SDS011;30487;48.716;9.272;2022-10-22T05:16:08;0.55;;;0.43;;
44766;SDS011;30487;48.716;9.272;2022-10-22T05:18:34;0.55;;;0.30;;
44766;SDS011;30487;48.716;9.272;2022-10-22T05:21:04;1.42;;;0.47;;
44766;SDS011;30487;48.716;9.272;2022-10-22T05:23:34;2.40;;;0.40;;
44766;SDS011;30487;48.716;9.272;2022-10-22T05:26:03;1.10;;;0.40;;
44766;SDS011;30487;48.716;9.272;2022-10-22T05:28:30;1.17;;;0.35;;
44766;SDS011;30487;48.716;9.272;2022-10-22T05:30:57;2.78;;;0.40;;
44766;SDS011;30487;48.716;9.272;2022-10-22T05:33:23;0.95;;;0.35;;
44766;SDS011;30487;48.716;9.272;2022-10-22T05:35:50;1.63;;;0.32;;
44766;SDS011;30487;48.716;9.272;2022-10-22T05:38:16;0.73;;;0.30;;
44766;SDS011;30487;48.716;9.272;2022-10-22T05:40:42;0.85;;;0.40;;
44766;SDS011;30487;48.716;9.272;2022-10-22T05:43:08;1.48;;;0.30;;
44766;SDS011;30487;48.716;9.272;2022-10-22T05:45:41;2.60;;;0.40;;
44766;SDS011;30487;48.716;9.272;2022-10-22T05:48:06;2.33;;;0.47;;
44766;SDS011;30487;48.716;9.272;2022-10-22T05:50:36;1.90;;;0.40;;
44766;SDS011;30487;48.716;9.272;2022-10-22T05:53:03;1.00;;;0.40;;
44766;SDS011;30487;48.716;9.272;2022-10-22T05:55:30;0.80;;;0.38;;
44766;SDS011;30487;48.716;9.272;2022-10-22T05:58:04;2.75;;;0.50;;
44766;SDS011;30487;48.716;9.272;2022-10-22T06:00:30;1.58;;;0.47;;
44766;SDS011;30487;48.716;9.272;2022-10-22T06:02:58;0.90;;;0.40;;
44766;SDS011;30487;48.716;9.272;2022-10-22T06:05:24;1.23;;;0.35;;
44766;SDS011;30487;48.716;9.272;2022-10-22T06:07:49;2.20;;;0.55;;
44766;SDS011;30487;48.716;9.272;2022-10-22T06:10:16;1.85;;;0.50;;
44766;SDS011;30487;48.716;9.272;2022-10-22T06:12:45;2.63;;;0.50;;
44766;SDS011;30487;48.716;9.272;2022-10-22T06:15:12;1.30;;;0.50;;
44766;SDS011;30487;48.716;9.272;2022-10-22T06:17:39;0.73;;;0.40;;
44766;SDS011;30487;48.716;9.272;2022-10-22T06:20:07;3.92;;;0.70;;
44766;SDS011;30487;48.716;9.272;2022-10-22T06:22:33;1.13;;;0.50;;
44766;SDS011;30487;48.716;9.272;2022-10-22T06:24:59;1.23;;;0.30;;
44766;SDS011;30487;48.716;9.272;2022-10-22T06:27:25;1.90;;;0.40;;
44766;SDS011;30487;48.716;9.272;2022-10-22T06:29:50;2.35;;;0.47;;
44766;SDS011;30487;48.716;9.272;2022-10-22T06:32:16;1.85;;;0.50;;
44766;SDS011;30487;48.716;9.272;2022-10-22T06:34:41;0.90;;;0.60;;
44766;SDS011;30487;48.716;9.272;2022-10-22T06:37:08;1.23;;;0.40;;
44766;SDS011;30487;48.716;9.272;2022-10-22T06:39:34;1.30;;;0.50;;
44766;SDS011;30487;48.716;9.272;2022-10-22T06:42:00;2.40;;;0.65;;
44766;SDS011;30487;48.716;9.272;2022-10-22T06:44:25;1.55;;;0.32;;
44766;SDS011;30487;48.716;9.272;2022-10-22T06:46:51;1.05;;;0.50;;
44766;SDS011;30487;48.716;9.272;2022-10-22T06:49:17;2.30;;;0.60;;
44766;SDS011;30487;48.716;9.272;2022-10-22T06:51:44;1.63;;;0.73;;
44766;SDS011;30487;48.716;9.272;2022-10-22T06:54:13;2.42;;;0.50;;
44766;SDS011;30487;48.716;9.272;2022-10-22T06:56:39;2.10;;;0.60;;
44766;SDS011;30487;48.716;9.272;2022-10-22T06:59:04;3.72;;;0.70;;
44766;SDS011;30487;48.716;9.272;2022-10-22T07:01:31;3.85;;;0.60;;
44766;SDS011;30487;48.716;9.272;2022-10-22T07:03:58;2.78;;;0.50;;
44766;SDS011;30487;48.716;9.272;2022-10-22T07:06:24;5.07;;;0.70;;
44766;SDS011;30487;48.716;9.272;2022-10-22T07:08:50;2.05;;;0.65;;
44766;SDS011;30487;48.716;9.272;2022-10-22T07:11:18;1.90;;;0.60;;
44766;SDS011;30487;48.716;9.272;2022-10-22T07:13:48;3.42;;;0.55;;
44766;SDS011;30487;48.716;9.272;2022-10-22T07:16:15;1.08;;;0.50;;
44766;SDS011;30487;48.716;9.272;2022-10-22T07:18:42;3.78;;;0.68;;
44766;SDS011;30487;48.716;9.272;2022-10-22T07:21:08;2.40;;;0.57;;
44766;SDS011;30487;48.716;9.272;2022-10-22T07:23:35;2.65;;;0.55;;
44766;SDS011;30487;48.716;9.272;2022-10-22T07:26:01;4.70;;;0.70;;
44766;SDS011;30487;48.716;9.272;2022-10-22T07:28:28;2.10;;;0.60;;
44766;SDS011;30487;48.716;9.272;2022-10-22T07:30:54;3.50;;;0.60;;
44766;SDS011;30487;48.716;9.272;2022-10-22T07:33:20;5.07;;;0.63;;
44766;SDS011;30487;48.716;9.272;2022-10-22T07:35:45;4.65;;;0.90;;
44766;SDS011;30487;48.716;9.272;2022-10-22T07:38:11;1.73;;;0.63;;
44766;SDS011;30487;48.716;9.272;2022-10-22T07:40:37;2.88;;;1.10;;
44766;SDS011;30487;48.716;9.272;2022-10-22T07:43:02;2.65;;;1.10;;
44766;SDS011;30487;48.716;9.272;2022-10-22T07:45:29;3.50;;;0.88;;
44766;SDS011;30487;48.716;9.272;2022-10-22T07:47:54;2.75;;;1.00;;
44766;SDS011;30487;48.716;9.272;2022-10-22T07:50:20;4.45;;;1.05;;
44766;SDS011;30487;48.716;9.272;2022-10-22T07:52:46;3.10;;;0.95;;
44766;SDS011;30487;48.716;9.272;2022-10-22T07:55:11;2.53;;;0.70;;
44766;SDS011;30487;48.716;9.272;2022-10-22T07:57:38;1.73;;;0.77;;
44766;SDS011;30487;48.716;9.272;2022-10-22T08:00:05;2.67;;;0.82;;
44766;SDS011;30487;48.716;9.272;2022-10-22T08:02:32;4.05;;;0.73;;
44766;SDS011;30487;48.716;9.272;2022-10-22T08:04:57;3.72;;;1.00;;
44766;SDS011;30487;48.716;9.272;2022-10-22T08:07:23;3.58;;;0.90;;
44766;SDS011;30487;48.716;9.272;2022-10-22T08:09:49;1.42;;;0.70;;
44766;SDS011;30487;48.716;9.272;2022-10-22T08:12:14;3.25;;;1.02;;
44766;SDS011;30487;48.716;9.272;2022-10-22T08:14:40;3.08;;;0.80;;
44766;SDS011;30487;48.716;9.272;2022-10-22T08:17:05;2.13;;;0.80;;
44766;SDS011;30487;48.716;9.272;2022-10-22T08:19:31;2.47;;;0.80;;
44766;SDS011;30487;48.716;9.272;2022-10-22T08:21:57;2.45;;;0.80;;
44766;SDS011;30487;48.716;9.272;2022-10-22T08:24:23;2.80;;;0.70;;
44766;SDS011;30487;48.716;9.272;2022-10-22T08:26:51;7.82;;;1.10;;
44766;SDS011;30487;48.716;9.272;2022-10-22T08:29:18;3.90;;;0.77;;
44766;SDS011;30487;48.716;9.272;2022-10-22T08:31:45;1.55;;;0.80;;
44766;SDS011;30487;48.716;9.272;2022-10-22T08:34:11;3.63;;;0.80;;
44766;SDS011;30487;48.716;9.272;2022-10-22T08:36:36;1.60;;;0.80;;
44766;SDS011;30487;48.716;9.272;2022-10-22T08:39:02;3.92;;;0.90;;
44766;SDS011;30487;48.716;9.272;2022-10-22T08:41:28;5.03;;;1.10;;
44766;SDS011;30487;48.716;9.272;2022-10-22T08:47:45;2.78;;;0.68;;
44766;SDS011;30487;48.716;9.272;2022-10-22T08:49:39;1.60;;;0.80;;
44766;SDS011;30487;48.716;9.272;2022-10-22T08:52:07;2.60;;;0.85;;
44766;SDS011;30487;48.716;9.272;2022-10-22T08:54:52;1.65;;;0.70;;
44766;SDS011;30487;48.716;9.272;2022-10-22T09:00:20;0.93;;;0.60;;
44766;SDS011;30487;48.716;9.272;2022-10-22T09:08:24;1.77;;;0.70;;
44766;SDS011;30487;48.716;9.272;2022-10-22T09:10:52;1.23;;;0.60;;
44766;SDS011;30487;48.716;9.272;2022-10-22T09:13:22;1.40;;;0.70;;
44766;SDS011;30487;48.716;9.272;2022-10-22T09:15:50;3.15;;;0.80;;
44766;SDS011;30487;48.716;9.272;2022-10-22T09:18:36;1.73;;;0.60;;
44766;SDS011;30487;48.716;9.272;2022-10-22T09:24:09;3.38;;;0.68;;
44766;SDS011;30487;48.716;9.272;2022-10-22T09:26:45;4.97;;;0.80;;
44766;SDS011;30487;48.716;9.272;2022-10-22T09:29:18;3.47;;;0.60;;
44766;SDS011;30487;48.716;9.272;2022-10-22T09:31:48;0.80;;;0.52;;
44766;SDS011;30487;48.716;9.272;2022-10-22T09:34:14;2.40;;;0.55;;
44766;SDS011;30487;48.716;9.272;2022-10-22T09:36:44;2.17;;;0.60;;
44766;SDS011;30487;48.716;9.272;2022-10-22T09:39:26;4.03;;;0.85;;
44766;SDS011;30487;48.716;9.272;2022-10-22T09:41:55;1.65;;;0.77;;
44766;SDS011;30487;48.716;9.272;2022-10-22T09:44:21;1.60;;;0.60;;
44766;SDS011;30487;48.716;9.272;2022-10-22T09:46:47;1.50;;;0.90;;
44766;SDS011;30487;48.716;9.272;2022-10-22T09:49:17;3.08;;;0.63;;
44766;SDS011;30487;48.716;9.272;2022-10-22T09:56:49;1.38;;;0.60;;
44766;SDS011;30487;48.716;9.272;2022-10-22T09:59:18;2.88;;;0.77;;
44766;SDS011;30487;48.716;9.272;2022-10-22T10:01:54;2.30;;;0.80;;
44766;SDS011;30487;48.716;9.272;2022-10-22T10:04:25;1.90;;;0.63;;
44766;SDS011;30487;48.716;9.272;2022-10-22T10:06:52;1.30;;;0.70;;
44766;SDS011;30487;48.716;9.272;2022-10-22T10:09:21;1.20;;;0.60;;
44766;SDS011;30487;48.716;9.272;2022-10-22T10:15:07;5.07;;;1.00;;
44766;SDS011;30487;48.716;9.272;2022-10-22T10:21:01;1.90;;;0.60;;
44766;SDS011;30487;48.716;9.272;2022-10-22T10:23:48;1.75;;;0.70;;
44766;SDS011;30487;48.716;9.272;2022-10-22T10:26:42;2.28;;;0.82;;
44766;SDS011;30487;48.716;9.272;2022-10-22T10:37:45;1.45;;;0.45;;
44766;SDS011;30487;48.716;9.272;2022-10-22T10:42:56;2.47;;;0.60;;
44766;SDS011;30487;48.716;9.272;2022-10-22T10:45:29;1.02;;;0.60;;
44766;SDS011;30487;48.716;9.272;2022-10-22T10:48:34;1.90;;;0.70;;
44766;SDS011;30487;48.716;9.272;2022-10-22T10:56:55;2.55;;;0.82;;
44766;SDS011;30487;48.716;9.272;2022-10-22T11:02:30;2.97;;;0.60;;
44766;SDS011;30487;48.716;9.272;2022-10-22T11:10:33;2.15;;;0.68;;
44766;SDS011;30487;48.716;9.272;2022-10-22T11:13:40;3.40;;;0.80;;
44766;SDS011;30487;48.716;9.272;2022-10-22T11:16:19;2.97;;;0.88;;
44766;SDS011;30487;48.716;9.272;2022-10-22T11:21:40;1.73;;;0.52;;
44766;SDS011;30487;48.716;9.272;2022-10-22T11:24:15;3.50;;;0.80;;
44766;SDS011;30487;48.716;9.272;2022-10-22T11:26:55;3.00;;;0.88;;
44766;SDS011;30487;48.716;9.272;2022-10-22T11:29:27;3.45;;;0.70;;
44766;SDS011;30487;48.716;9.272;2022-10-22T11:31:58;7.93;;;0.80;;
44766;SDS011;30487;48.716;9.272;2022-10-22T11:37:13;3.70;;;0.80;;
44766;SDS011;30487;48.716;9.272;2022-10-22T11:39:41;2.97;;;0.73;;
44766;SDS011;30487;48.716;9.272;2022-10-22T11:45:36;2.00;;;0.75;;
44766;SDS011;30487;48.716;9.272;2022-10-22T12:14:24;3.60;;;0.60;;
44766;SDS011;30487;48.716;9.272;2022-10-22T12:21:50;2.65;;;0.80;;
44766;SDS011;30487;48.716;9.272;2022-10-22T12:24:19;5.78;;;0.70;;
44766;SDS011;30487;48.716;9.272;2022-10-22T12:26:47;5.35;;;0.90;;
44766;SDS011;30487;48.716;9.272;2022-10-22T12:29:17;3.10;;;0.60;;
44766;SDS011;30487;48.716;9.272;2022-10-22T12:31:44;3.90;;;0.80;;
44766;SDS011;30487;48.716;9.272;2022-10-22T12:34:18;2.53;;;0.57;;
44766;SDS011;30487;48.716;9.272;2022-10-22T12:36:49;5.15;;;0.80;;
44766;SDS011;30487;48.716;9.272;2022-10-22T12:39:17;5.90;;;0.77;;
44766;SDS011;30487;48.716;9.272;2022-10-22T12:44:16;1.98;;;0.80;;
44766;SDS011;30487;48.716;9.272;2022-10-22T12:46:42;1.42;;;0.70;;
44766;SDS011;30487;48.716;9.272;2022-10-22T12:49:12;5.78;;;0.77;;
44766;SDS011;30487;48.716;9.272;2022-10-22T12:51:41;1.80;;;0.70;;
44766;SDS011;30487;48.716;9.272;2022-10-22T12:54:08;2.70;;;0.70;;
44766;SDS011;30487;48.716;9.272;2022-10-22T12:56:41;3.53;;;0.70;;
44766;SDS011;30487;48.716;9.272;2022-10-22T12:59:11;2.88;;;0.80;;
44766;SDS011;30487;48.716;9.272;2022-10-22T13:01:40;2.67;;;0.70;;
44766;SDS011;30487;48.716;9.272;2022-10-22T13:09:39;3.78;;;0.85;;
44766;SDS011;30487;48.716;9.272;2022-10-22T13:12:24;3.45;;;0.98;;
44766;SDS011;30487;48.716;9.272;2022-10-22T13:14:51;3.67;;;0.95;;
44766;SDS011;30487;48.716;9.272;2022-10-22T13:17:35;3.97;;;0.73;;
44766;SDS011;30487;48.716;9.272;2022-10-22T13:20:03;4.00;;;0.70;;
44766;SDS011;30487;48.716;9.272;2022-10-22T13:22:41;2.38;;;0.65;;
44766;SDS011;30487;48.716;9.272;2022-10-22T13:25:35;3.40;;;0.70;;
44766;SDS011;30487;48.716;9.272;2022-10-22T13:30:49;4.82;;;0.95;;
44766;SDS011;30487;48.716;9.272;2022-10-22T13:33:20;3.65;;;1.10;;
44766;SDS011;30487;48.716;9.272;2022-10-22T13:35:47;2.35;;;0.70;;
44766;SDS011;30487;48.716;9.272;2022-10-22T13:38:19;3.20;;;0.70;;
44766;SDS011;30487;48.716;9.272;2022-10-22T13:40:46;2.05;;;0.80;;
44766;SDS011;30487;48.716;9.272;2022-10-22T13:43:13;3.60;;;0.60;;
44766;SDS011;30487;48.716;9.272;2022-10-22T13:45:40;3.90;;;0.80;;
44766;SDS011;30487;48.716;9.272;2022-10-22T13:48:07;2.22;;;0.70;;
44766;SDS011;30487;48.716;9.272;2022-10-22T13:50:43;2.13;;;0.70;;
44766;SDS011;30487;48.716;9.272;2022-10-22T13:53:09;2.97;;;0.73;;
44766;SDS011;30487;48.716;9.272;2022-10-22T13:58:09;1.67;;;0.60;;
44766;SDS011;30487;48.716;9.272;2022-10-22T14:00:37;1.85;;;0.70;;
44766;SDS011;30487;48.716;9.272;2022-10-22T14:03:05;2.63;;;0.60;;
44766;SDS011;30487;48.716;9.272;2022-10-22T14:05:35;2.80;;;0.77;;
44766;SDS011;30487;48.716;9.272;2022-10-22T14:08:00;4.43;;;0.80;;
44766;SDS011;30487;48.716;9.272;2022-10-22T14:10:26;5.78;;;1.35;;
44766;SDS011;30487;48.716;9.272;2022-10-22T14:12:52;3.47;;;1.50;;
44766;SDS011;30487;48.716;9.272;2022-10-22T14:15:18;2.47;;;0.80;;
44766;SDS011;30487;48.716;9.272;2022-10-22T14:17:50;3.20;;;0.60;;
44766;SDS011;30487;48.716;9.272;2022-10-22T14:20:21;2.47;;;0.70;;
44766;SDS011;30487;48.716;9.272;2022-10-22T14:22:49;2.58;;;0.80;;
44766;SDS011;30487;48.716;9.272;2022-10-22T14:25:24;3.65;;;0.88;;
44766;SDS011;30487;48.716;9.272;2022-10-22T14:27:50;2.70;;;0.77;;
44766;SDS011;30487;48.716;9.272;2022-10-22T14:30:21;2.00;;;0.80;;
44766;SDS011;30487;48.716;9.272;2022-10-22T14:32:49;2.13;;;0.75;;
44766;SDS011;30487;48.716;9.272;2022-10-22T14:35:16;2.50;;;0.90;;
44766;SDS011;30487;48.716;9.272;2022-10-22T14:37:46;2.95;;;0.70;;
44766;SDS011;30487;48.716;9.272;2022-10-22T14:40:13;2.10;;;0.70;;
44766;SDS011;30487;48.716;9.272;2022-10-22T14:42:42;2.92;;;0.93;;
44766;SDS011;30487;48.716;9.272;2022-10-22T14:45:12;2.95;;;0.95;;
44766;SDS011;30487;48.716;9.272;2022-10-22T14:47:38;3.33;;;1.20;;
44766;SDS011;30487;48.716;9.272;2022-10-22T14:50:04;1.98;;;0.63;;
44766;SDS011;30487;48.716;9.272;2022-10-22T14:52:30;2.08;;;0.80;;
44766;SDS011;30487;48.716;9.272;2022-10-22T14:54:56;3.88;;;0.95;;
44766;SDS011;30487;48.716;9.272;2022-10-22T14:57:21;2.28;;;0.73;;
44766;SDS011;30487;48.716;9.272;2022-10-22T14:59:47;4.57;;;1.15;;
44766;SDS011;30487;48.716;9.272;2022-10-22T15:02:12;3.65;;;0.90;;
44766;SDS011;30487;48.716;9.272;2022-10-22T15:04:38;2.78;;;0.90;;
44766;SDS011;30487;48.716;9.272;2022-10-22T15:07:04;5.90;;;0.90;;
44766;SDS011;30487;48.716;9.272;2022-10-22T15:09:30;1.60;;;0.70;;
44766;SDS011;30487;48.716;9.272;2022-10-22T15:11:55;2.03;;;0.80;;
44766;SDS011;30487;48.716;9.272;2022-10-22T15:14:21;4.65;;;1.17;;
44766;SDS011;30487;48.716;9.272;2022-10-22T15:16:47;2.83;;;0.90;;
44766;SDS011;30487;48.716;9.272;2022-10-22T15:19:13;4.32;;;0.90;;
44766;SDS011;30487;48.716;9.272;2022-10-22T15:21:38;3.28;;;1.08;;
44766;SDS011;30487;48.716;9.272;2022-10-22T15:24:04;5.13;;;0.98;;
44766;SDS011;30487;48.716;9.272;2022-10-22T15:26:30;5.32;;;1.10;;
44766;SDS011;30487;48.716;9.272;2022-10-22T15:28:56;3.63;;;1.10;;
44766;SDS011;30487;48.716;9.272;2022-10-22T15:31:41;3.60;;;1.00;;
44766;SDS011;30487;48.716;9.272;2022-10-22T15:34:23;2.55;;;1.15;;
44766;SDS011;30487;48.716;9.272;2022-10-22T15:36:50;6.20;;;1.13;;
44766;SDS011;30487;48.716;9.272;2022-10-22T15:39:17;8.65;;;1.17;;
44766;SDS011;30487;48.716;9.272;2022-10-22T15:41:44;3.08;;;1.10;;
44766;SDS011;30487;48.716;9.272;2022-10-22T15:44:44;8.50;;;1.20;;
44766;SDS011;30487;48.716;9.272;2022-10-22T15:47:04;8.80;;;1.30;;
44766;SDS011;30487;48.716;9.272;2022-10-22T15:49:32;3.60;;;1.13;;
44766;SDS011;30487;48.716;9.272;2022-10-22T15:51:59;3.67;;;1.10;;
44766;SDS011;30487;48.716;9.272;2022-10-22T15:54:26;3.85;;;0.90;;
44766;SDS011;30487;48.716;9.272;2022-10-22T15:56:54;6.05;;;0.90;;
44766;SDS011;30487;48.716;9.272;2022-10-22T15:59:21;5.13;;;1.02;;
44766;SDS011;30487;48.716;9.272;2022-10-22T16:01:47;4.88;;;0.93;;
44766;SDS011;30487;48.716;9.272;2022-10-22T16:04:13;5.05;;;1.10;;
44766;SDS011;30487;48.716;9.272;2022-10-22T16:06:40;5.53;;;1.08;;
44766;SDS011;30487;48.716;9.272;2022-10-22T16:09:08;4.82;;;1.23;;
44766;SDS011;30487;48.716;9.272;2022-10-22T16:11:36;5.68;;;1.13;;
44766;SDS011;30487;48.716;9.272;2022-10-22T16:14:02;3.80;;;1.17;;
44766;SDS011;30487;48.716;9.272;2022-10-22T16:16:29;5.00;;;0.93;;
44766;SDS011;30487;48.716;9.272;2022-10-22T16:18:56;5.25;;;1.38;;
44766;SDS011;30487;48.716;9.272;2022-10-22T16:21:22;6.72;;;1.23;;
44766;SDS011;30487;48.716;9.272;2022-10-22T16:23:48;4.82;;;1.10;;
44766;SDS011;30487;48.716;9.272;2022-10-22T16:26:15;4.82;;;1.20;;
44766;SDS011;30487;48.716;9.272;2022-10-22T16:28:42;6.03;;;0.95;;
44766;SDS011;30487;48.716;9.272;2022-10-22T16:31:09;7.10;;;1.42;;
44766;SDS011;30487;48.716;9.272;2022-10-22T16:33:37;5.68;;;1.25;;
44766;SDS011;30487;48.716;9.272;2022-10-22T16:36:22;4.97;;;1.05;;
44766;SDS011;30487;48.716;9.272;2022-10-22T16:41:14;2.53;;;1.10;;
44766;SDS011;30487;48.716;9.272;2022-10-22T16:43:42;4.70;;;1.20;;
44766;SDS011;30487;48.716;9.272;2022-10-22T16:46:09;2.25;;;0.90;;
44766;SDS011;30487;48.716;9.272;2022-10-22T16:48:35;4.70;;;1.20;;
44766;SDS011;30487;48.716;9.272;2022-10-22T16:51:05;3.08;;;1.42;;
44766;SDS011;30487;48.716;9.272;2022-10-22T16:53:32;6.85;;;1.50;;
44766;SDS011;30487;48.716;9.272;2022-10-22T16:55:57;7.03;;;1.20;;
44766;SDS011;30487;48.716;9.272;2022-10-22T16:58:23;6.00;;;1.15;;
44766;SDS011;30487;48.716;9.272;2022-10-22T17:00:49;6.25;;;1.10;;
44766;SDS011;30487;48.716;9.272;2022-10-22T17:03:15;2.55;;;1.27;;
44766;SDS011;30487;48.716;9.272;2022-10-22T17:05:41;3.47;;;1.10;;
44766;SDS011;30487;48.716;9.272;2022-10-22T17:08:07;3.13;;;1.10;;
44766;SDS011;30487;48.716;9.272;2022-10-22T17:10:34;6.18;;;1.33;;
44766;SDS011;30487;48.716;9.272;2022-10-22T17:13:01;4.53;;;1.25;;
44766;SDS011;30487;48.716;9.272;2022-10-22T17:15:27;4.78;;;1.25;;